sensor_id;sensor_type;location;lat;lon;timestamp;P1;durP1;ratioP1;P2;durP2;ratioP2
11222;SDS011;5668;52.012;8.724;2023-05-02T00:01:23;4.60;;;3.27;;
11222;SDS011;5668;52.012;8.724;2023-05-02T00:03:50;3.60;;;3.30;;
11222;SDS011;5668;52.012;8.724;2023-05-02T00:06:17;3.97;;;3.07;;
11222;SDS011;5668;52.012;8.724;2023-05-02T00:08:45;3.85;;;3.55;;
11222;SDS011;5668;52.012;8.724;2023-05-02T00:11:15;6.00;;;3.58;;
11222;SDS011;5668;52.012;8.724;2023-05-02T00:13:42;4.32;;;3.38;;
11222;SDS011;5668;52.012;8.724;2023-05-02T00:16:09;3.60;;;3.30;;
11222;SDS011;5668;52.012;8.724;2023-05-02T00:18:36;5.47;;;3.77;;
11222;SDS011;5668;52.012;8.724;2023-05-02T00:21:04;4.57;;;3.57;;
11222;SDS011;5668;52.012;8.724;2023-05-02T00:23:31;3.63;;;3.30;;
11222;SDS011;5668;52.012;8.724;2023-05-02T00:25:58;4.53;;;3.60;;
11222;SDS011;5668;52.012;8.724;2023-05-02T00:28:27;3.60;;;3.10;;
11222;SDS011;5668;52.012;8.724;2023-05-02T00:30:55;3.50;;;3.20;;
11222;SDS011;5668;52.012;8.724;2023-05-02T00:33:23;3.80;;;3.42;;
11222;SDS011;5668;52.012;8.724;2023-05-02T00:35:50;4.18;;;3.70;;
11222;SDS011;5668;52.012;8.724;2023-05-02T00:38:17;4.83;;;4.00;;
11222;SDS011;5668;52.012;8.724;2023-05-02T00:40:45;5.60;;;3.60;;
11222;SDS011;5668;52.012;8.724;2023-05-02T00:43:15;3.77;;;3.47;;
11222;SDS011;5668;52.012;8.724;2023-05-02T00:45:44;4.67;;;4.13;;
11222;SDS011;5668;52.012;8.724;2023-05-02T00:48:12;5.03;;;3.83;;
11222;SDS011;5668;52.012;8.724;2023-05-02T00:50:39;4.68;;;4.28;;
11222;SDS011;5668;52.012;8.724;2023-05-02T00:53:08;4.38;;;3.97;;
11222;SDS011;5668;52.012;8.724;2023-05-02T00:55:36;4.65;;;4.20;;
11222;SDS011;5668;52.012;8.724;2023-05-02T00:58:04;4.67;;;3.60;;
11222;SDS011;5668;52.012;8.724;2023-05-02T01:00:37;4.27;;;3.87;;
11222;SDS011;5668;52.012;8.724;2023-05-02T01:03:14;5.63;;;4.13;;
11222;SDS011;5668;52.012;8.724;2023-05-02T01:05:54;4.50;;;3.80;;
11222;SDS011;5668;52.012;8.724;2023-05-02T01:08:33;4.70;;;3.83;;
11222;SDS011;5668;52.012;8.724;2023-05-02T01:11:04;5.27;;;4.30;;
11222;SDS011;5668;52.012;8.724;2023-05-02T01:13:39;7.47;;;4.00;;
11222;SDS011;5668;52.012;8.724;2023-05-02T01:16:09;4.50;;;4.10;;
11222;SDS011;5668;52.012;8.724;2023-05-02T01:18:41;6.20;;;4.13;;
11222;SDS011;5668;52.012;8.724;2023-05-02T01:21:09;4.40;;;4.00;;
11222;SDS011;5668;52.012;8.724;2023-05-02T01:23:39;4.90;;;4.38;;
11222;SDS011;5668;52.012;8.724;2023-05-02T01:26:16;4.97;;;4.07;;
11222;SDS011;5668;52.012;8.724;2023-05-02T01:28:56;5.80;;;5.30;;
11222;SDS011;5668;52.012;8.724;2023-05-02T01:31:25;7.47;;;5.80;;
11222;SDS011;5668;52.012;8.724;2023-05-02T01:33:54;6.33;;;5.73;;
11222;SDS011;5668;52.012;8.724;2023-05-02T01:36:24;8.70;;;7.80;;
11222;SDS011;5668;52.012;8.724;2023-05-02T01:38:54;8.07;;;7.33;;
11222;SDS011;5668;52.012;8.724;2023-05-02T01:41:24;9.57;;;8.60;;
11222;SDS011;5668;52.012;8.724;2023-05-02T01:43:53;9.67;;;8.67;;
11222;SDS011;5668;52.012;8.724;2023-05-02T01:46:24;10.30;;;9.30;;
11222;SDS011;5668;52.012;8.724;2023-05-02T01:48:52;10.43;;;9.43;;
11222;SDS011;5668;52.012;8.724;2023-05-02T01:51:22;12.30;;;10.47;;
11222;SDS011;5668;52.012;8.724;2023-05-02T01:53:56;13.27;;;11.10;;
11222;SDS011;5668;52.012;8.724;2023-05-02T01:56:28;13.07;;;11.67;;
11222;SDS011;5668;52.012;8.724;2023-05-02T01:59:00;13.80;;;12.37;;
11222;SDS011;5668;52.012;8.724;2023-05-02T02:01:30;14.33;;;12.53;;
11222;SDS011;5668;52.012;8.724;2023-05-02T02:03:57;14.27;;;12.83;;
11222;SDS011;5668;52.012;8.724;2023-05-02T02:06:26;14.57;;;13.03;;
11222;SDS011;5668;52.012;8.724;2023-05-02T02:08:54;15.20;;;13.70;;
11222;SDS011;5668;52.012;8.724;2023-05-02T02:11:23;16.27;;;14.43;;
11222;SDS011;5668;52.012;8.724;2023-05-02T02:13:59;16.83;;;15.10;;
11222;SDS011;5668;52.012;8.724;2023-05-02T02:16:32;18.37;;;15.30;;
11222;SDS011;5668;52.012;8.724;2023-05-02T02:19:03;17.60;;;15.60;;
11222;SDS011;5668;52.012;8.724;2023-05-02T02:21:33;18.20;;;16.20;;
11222;SDS011;5668;52.012;8.724;2023-05-02T02:24:02;19.00;;;17.10;;
11222;SDS011;5668;52.012;8.724;2023-05-02T02:26:32;19.53;;;17.63;;
11222;SDS011;5668;52.012;8.724;2023-05-02T02:29:03;23.07;;;18.77;;
11222;SDS011;5668;52.012;8.724;2023-05-02T02:31:30;21.13;;;18.83;;
11222;SDS011;5668;52.012;8.724;2023-05-02T02:33:58;20.37;;;18.07;;
11222;SDS011;5668;52.012;8.724;2023-05-02T02:36:27;18.70;;;16.80;;
11222;SDS011;5668;52.012;8.724;2023-05-02T02:39:01;19.23;;;16.10;;
11222;SDS011;5668;52.012;8.724;2023-05-02T02:41:39;19.10;;;15.37;;
11222;SDS011;5668;52.012;8.724;2023-05-02T02:44:17;18.07;;;15.07;;
11222;SDS011;5668;52.012;8.724;2023-05-02T02:46:53;17.13;;;15.33;;
11222;SDS011;5668;52.012;8.724;2023-05-02T02:49:29;17.03;;;14.70;;
11222;SDS011;5668;52.012;8.724;2023-05-02T02:52:02;17.27;;;15.27;;
11222;SDS011;5668;52.012;8.724;2023-05-02T02:54:37;19.90;;;15.50;;
11222;SDS011;5668;52.012;8.724;2023-05-02T02:57:11;17.60;;;15.03;;
11222;SDS011;5668;52.012;8.724;2023-05-02T02:59:46;18.03;;;16.10;;
11222;SDS011;5668;52.012;8.724;2023-05-02T03:02:21;17.27;;;15.47;;
11222;SDS011;5668;52.012;8.724;2023-05-02T03:04:53;18.60;;;14.90;;
11222;SDS011;5668;52.012;8.724;2023-05-02T03:07:22;20.57;;;15.60;;
11222;SDS011;5668;52.012;8.724;2023-05-02T03:09:52;18.93;;;15.13;;
11222;SDS011;5668;52.012;8.724;2023-05-02T03:12:19;19.73;;;15.93;;
11222;SDS011;5668;52.012;8.724;2023-05-02T03:14:48;17.93;;;15.47;;
11222;SDS011;5668;52.012;8.724;2023-05-02T03:17:15;18.07;;;15.67;;
11222;SDS011;5668;52.012;8.724;2023-05-02T03:19:43;19.00;;;16.63;;
11222;SDS011;5668;52.012;8.724;2023-05-02T03:22:11;20.53;;;16.70;;
11222;SDS011;5668;52.012;8.724;2023-05-02T03:24:38;18.60;;;16.47;;
11222;SDS011;5668;52.012;8.724;2023-05-02T03:27:05;20.43;;;17.20;;
11222;SDS011;5668;52.012;8.724;2023-05-02T03:29:32;19.50;;;17.27;;
11222;SDS011;5668;52.012;8.724;2023-05-02T03:32:01;20.30;;;16.87;;
11222;SDS011;5668;52.012;8.724;2023-05-02T03:34:28;19.80;;;16.73;;
11222;SDS011;5668;52.012;8.724;2023-05-02T03:36:55;19.83;;;16.27;;
11222;SDS011;5668;52.012;8.724;2023-05-02T03:39:23;20.50;;;17.37;;
11222;SDS011;5668;52.012;8.724;2023-05-02T03:41:50;17.27;;;15.43;;
11222;SDS011;5668;52.012;8.724;2023-05-02T03:44:17;19.07;;;16.03;;
11222;SDS011;5668;52.012;8.724;2023-05-02T03:46:44;18.37;;;15.90;;
11222;SDS011;5668;52.012;8.724;2023-05-02T03:49:13;17.93;;;16.03;;
11222;SDS011;5668;52.012;8.724;2023-05-02T03:51:41;19.67;;;16.77;;
11222;SDS011;5668;52.012;8.724;2023-05-02T03:54:08;19.50;;;15.77;;
11222;SDS011;5668;52.012;8.724;2023-05-02T03:56:36;18.97;;;16.00;;
11222;SDS011;5668;52.012;8.724;2023-05-02T03:59:03;16.57;;;14.77;;
11222;SDS011;5668;52.012;8.724;2023-05-02T04:01:30;19.73;;;15.73;;
11222;SDS011;5668;52.012;8.724;2023-05-02T04:03:57;19.07;;;15.30;;
11222;SDS011;5668;52.012;8.724;2023-05-02T04:06:26;17.37;;;15.10;;
11222;SDS011;5668;52.012;8.724;2023-05-02T04:08:53;17.87;;;15.13;;
11222;SDS011;5668;52.012;8.724;2023-05-02T04:11:21;17.27;;;14.73;;
11222;SDS011;5668;52.012;8.724;2023-05-02T04:13:51;22.03;;;16.00;;
11222;SDS011;5668;52.012;8.724;2023-05-02T04:16:18;19.10;;;14.53;;
11222;SDS011;5668;52.012;8.724;2023-05-02T04:18:45;19.40;;;15.30;;
11222;SDS011;5668;52.012;8.724;2023-05-02T04:21:12;18.10;;;14.50;;
11222;SDS011;5668;52.012;8.724;2023-05-02T04:23:41;18.67;;;14.70;;
11222;SDS011;5668;52.012;8.724;2023-05-02T04:26:08;16.87;;;13.70;;
11222;SDS011;5668;52.012;8.724;2023-05-02T04:28:35;17.87;;;14.23;;
11222;SDS011;5668;52.012;8.724;2023-05-02T04:31:02;16.43;;;14.03;;
11222;SDS011;5668;52.012;8.724;2023-05-02T04:33:30;16.77;;;14.50;;
11222;SDS011;5668;52.012;8.724;2023-05-02T04:35:57;17.70;;;14.10;;
11222;SDS011;5668;52.012;8.724;2023-05-02T04:38:25;15.83;;;13.90;;
11222;SDS011;5668;52.012;8.724;2023-05-02T04:40:53;19.17;;;14.37;;
11222;SDS011;5668;52.012;8.724;2023-05-02T04:43:21;17.60;;;14.23;;
11222;SDS011;5668;52.012;8.724;2023-05-02T04:45:48;17.33;;;14.43;;
11222;SDS011;5668;52.012;8.724;2023-05-02T04:48:15;17.47;;;14.10;;
11222;SDS011;5668;52.012;8.724;2023-05-02T04:50:43;17.37;;;14.40;;
11222;SDS011;5668;52.012;8.724;2023-05-02T04:53:11;16.37;;;13.43;;
11222;SDS011;5668;52.012;8.724;2023-05-02T04:55:38;15.80;;;13.70;;
11222;SDS011;5668;52.012;8.724;2023-05-02T04:58:08;16.63;;;12.83;;
11222;SDS011;5668;52.012;8.724;2023-05-02T05:00:35;14.53;;;12.43;;
11222;SDS011;5668;52.012;8.724;2023-05-02T05:03:02;16.53;;;12.43;;
11222;SDS011;5668;52.012;8.724;2023-05-02T05:05:30;14.90;;;12.07;;
11222;SDS011;5668;52.012;8.724;2023-05-02T05:07:58;14.80;;;12.20;;
11222;SDS011;5668;52.012;8.724;2023-05-02T05:10:25;15.93;;;13.13;;
11222;SDS011;5668;52.012;8.724;2023-05-02T05:12:52;16.73;;;13.83;;
11222;SDS011;5668;52.012;8.724;2023-05-02T05:15:21;15.13;;;13.63;;
11222;SDS011;5668;52.012;8.724;2023-05-02T05:17:50;16.97;;;14.33;;
11222;SDS011;5668;52.012;8.724;2023-05-02T05:20:17;18.87;;;14.30;;
11222;SDS011;5668;52.012;8.724;2023-05-02T05:22:45;16.67;;;14.17;;
11222;SDS011;5668;52.012;8.724;2023-05-02T05:25:12;17.77;;;14.07;;
11222;SDS011;5668;52.012;8.724;2023-05-02T05:27:40;16.67;;;13.10;;
11222;SDS011;5668;52.012;8.724;2023-05-02T05:30:07;13.87;;;12.03;;
11222;SDS011;5668;52.012;8.724;2023-05-02T05:32:36;14.90;;;11.37;;
11222;SDS011;5668;52.012;8.724;2023-05-02T05:35:04;10.53;;;8.97;;
11222;SDS011;5668;52.012;8.724;2023-05-02T05:37:31;8.83;;;7.90;;
11222;SDS011;5668;52.012;8.724;2023-05-02T05:40:00;9.03;;;7.43;;
11222;SDS011;5668;52.012;8.724;2023-05-02T05:42:28;9.70;;;7.43;;
11222;SDS011;5668;52.012;8.724;2023-05-02T05:44:55;7.93;;;7.00;;
11222;SDS011;5668;52.012;8.724;2023-05-02T05:47:23;8.20;;;6.60;;
11222;SDS011;5668;52.012;8.724;2023-05-02T05:49:52;7.33;;;6.60;;
11222;SDS011;5668;52.012;8.724;2023-05-02T05:52:20;7.60;;;5.30;;
11222;SDS011;5668;52.012;8.724;2023-05-02T05:54:48;5.67;;;4.07;;
11222;SDS011;5668;52.012;8.724;2023-05-02T05:57:18;3.23;;;2.73;;
11222;SDS011;5668;52.012;8.724;2023-05-02T05:59:45;3.17;;;2.30;;
11222;SDS011;5668;52.012;8.724;2023-05-02T06:02:12;2.70;;;2.50;;
11222;SDS011;5668;52.012;8.724;2023-05-02T06:04:40;2.60;;;2.40;;
11222;SDS011;5668;52.012;8.724;2023-05-02T06:07:09;2.80;;;2.20;;
11222;SDS011;5668;52.012;8.724;2023-05-02T06:09:36;3.13;;;2.80;;
11222;SDS011;5668;52.012;8.724;2023-05-02T06:12:03;6.00;;;2.93;;
11222;SDS011;5668;52.012;8.724;2023-05-02T06:14:30;3.23;;;2.70;;
11222;SDS011;5668;52.012;8.724;2023-05-02T06:16:58;3.70;;;2.87;;
11222;SDS011;5668;52.012;8.724;2023-05-02T06:19:25;4.57;;;2.93;;
11222;SDS011;5668;52.012;8.724;2023-05-02T06:21:52;7.80;;;3.47;;
11222;SDS011;5668;52.012;8.724;2023-05-02T06:24:21;6.60;;;3.70;;
11222;SDS011;5668;52.012;8.724;2023-05-02T06:26:48;7.33;;;4.27;;
11222;SDS011;5668;52.012;8.724;2023-05-02T06:29:15;7.23;;;3.90;;
11222;SDS011;5668;52.012;8.724;2023-05-02T06:31:42;7.27;;;4.50;;
11222;SDS011;5668;52.012;8.724;2023-05-02T06:34:10;11.13;;;4.50;;
11222;SDS011;5668;52.012;8.724;2023-05-02T06:36:37;6.67;;;4.50;;
11222;SDS011;5668;52.012;8.724;2023-05-02T06:39:04;7.07;;;4.50;;
11222;SDS011;5668;52.012;8.724;2023-05-02T06:41:33;6.07;;;3.87;;
11222;SDS011;5668;52.012;8.724;2023-05-02T06:44:00;7.57;;;4.00;;
11222;SDS011;5668;52.012;8.724;2023-05-02T06:46:28;7.10;;;4.17;;
11222;SDS011;5668;52.012;8.724;2023-05-02T06:48:55;8.93;;;4.40;;
11222;SDS011;5668;52.012;8.724;2023-05-02T06:51:22;4.97;;;3.50;;
11222;SDS011;5668;52.012;8.724;2023-05-02T06:53:50;9.07;;;4.17;;
11222;SDS011;5668;52.012;8.724;2023-05-02T06:56:17;5.43;;;3.23;;
11222;SDS011;5668;52.012;8.724;2023-05-02T06:58:45;7.80;;;3.60;;
11222;SDS011;5668;52.012;8.724;2023-05-02T07:01:13;6.10;;;3.70;;
11222;SDS011;5668;52.012;8.724;2023-05-02T07:03:40;5.23;;;3.10;;
11222;SDS011;5668;52.012;8.724;2023-05-02T07:06:07;6.80;;;3.57;;
11222;SDS011;5668;52.012;8.724;2023-05-02T07:08:34;7.27;;;3.77;;
11222;SDS011;5668;52.012;8.724;2023-05-02T07:11:02;6.27;;;3.90;;
11222;SDS011;5668;52.012;8.724;2023-05-02T07:13:29;9.90;;;4.00;;
11222;SDS011;5668;52.012;8.724;2023-05-02T07:15:57;8.10;;;3.90;;
11222;SDS011;5668;52.012;8.724;2023-05-02T07:18:25;6.13;;;3.70;;
11222;SDS011;5668;52.012;8.724;2023-05-02T07:20:52;7.73;;;3.70;;
11222;SDS011;5668;52.012;8.724;2023-05-02T07:23:19;7.53;;;3.90;;
11222;SDS011;5668;52.012;8.724;2023-05-02T07:25:46;6.93;;;3.93;;
11222;SDS011;5668;52.012;8.724;2023-05-02T07:28:14;5.33;;;3.90;;
11222;SDS011;5668;52.012;8.724;2023-05-02T07:30:41;5.10;;;3.53;;
11222;SDS011;5668;52.012;8.724;2023-05-02T07:33:10;4.83;;;2.87;;
11222;SDS011;5668;52.012;8.724;2023-05-02T07:35:37;5.40;;;3.20;;
11222;SDS011;5668;52.012;8.724;2023-05-02T07:38:04;6.73;;;3.23;;
11222;SDS011;5668;52.012;8.724;2023-05-02T07:40:31;9.20;;;3.50;;
11222;SDS011;5668;52.012;8.724;2023-05-02T07:42:59;6.47;;;3.20;;
11222;SDS011;5668;52.012;8.724;2023-05-02T07:45:27;6.90;;;2.97;;
11222;SDS011;5668;52.012;8.724;2023-05-02T07:47:54;7.20;;;3.33;;
11222;SDS011;5668;52.012;8.724;2023-05-02T07:50:23;6.40;;;2.97;;
11222;SDS011;5668;52.012;8.724;2023-05-02T07:52:51;10.33;;;3.30;;
11222;SDS011;5668;52.012;8.724;2023-05-02T07:55:19;7.60;;;3.10;;
11222;SDS011;5668;52.012;8.724;2023-05-02T07:57:47;7.50;;;3.40;;
11222;SDS011;5668;52.012;8.724;2023-05-02T08:00:14;8.10;;;3.63;;
11222;SDS011;5668;52.012;8.724;2023-05-02T08:02:42;7.70;;;3.90;;
11222;SDS011;5668;52.012;8.724;2023-05-02T08:05:10;11.97;;;3.87;;
11222;SDS011;5668;52.012;8.724;2023-05-02T08:07:38;12.80;;;3.40;;
11222;SDS011;5668;52.012;8.724;2023-05-02T08:10:07;7.90;;;3.97;;
11222;SDS011;5668;52.012;8.724;2023-05-02T08:12:37;10.03;;;4.30;;
11222;SDS011;5668;52.012;8.724;2023-05-02T08:15:05;8.23;;;4.13;;
11222;SDS011;5668;52.012;8.724;2023-05-02T08:17:34;8.43;;;3.80;;
11222;SDS011;5668;52.012;8.724;2023-05-02T08:20:01;9.03;;;3.70;;
11222;SDS011;5668;52.012;8.724;2023-05-02T08:22:29;10.00;;;4.40;;
11222;SDS011;5668;52.012;8.724;2023-05-02T08:24:57;6.83;;;3.87;;
11222;SDS011;5668;52.012;8.724;2023-05-02T08:27:25;8.23;;;3.60;;
11222;SDS011;5668;52.012;8.724;2023-05-02T08:29:52;11.93;;;5.03;;
11222;SDS011;5668;52.012;8.724;2023-05-02T08:32:19;11.00;;;4.30;;
11222;SDS011;5668;52.012;8.724;2023-05-02T08:34:47;9.70;;;4.40;;
11222;SDS011;5668;52.012;8.724;2023-05-02T08:37:14;11.87;;;4.30;;
11222;SDS011;5668;52.012;8.724;2023-05-02T08:39:42;10.67;;;4.10;;
11222;SDS011;5668;52.012;8.724;2023-05-02T08:42:11;10.40;;;4.23;;
11222;SDS011;5668;52.012;8.724;2023-05-02T08:44:38;10.60;;;4.60;;
11222;SDS011;5668;52.012;8.724;2023-05-02T08:47:05;8.37;;;4.53;;
11222;SDS011;5668;52.012;8.724;2023-05-02T08:49:36;9.40;;;4.17;;
11222;SDS011;5668;52.012;8.724;2023-05-02T08:52:04;13.13;;;5.23;;
11222;SDS011;5668;52.012;8.724;2023-05-02T08:54:35;11.70;;;4.57;;
11222;SDS011;5668;52.012;8.724;2023-05-02T08:57:03;10.93;;;4.60;;
11222;SDS011;5668;52.012;8.724;2023-05-02T08:59:32;9.70;;;4.27;;
11222;SDS011;5668;52.012;8.724;2023-05-02T09:02:04;10.37;;;4.80;;
11222;SDS011;5668;52.012;8.724;2023-05-02T09:04:38;12.83;;;4.70;;
11222;SDS011;5668;52.012;8.724;2023-05-02T09:07:07;12.80;;;4.83;;
11222;SDS011;5668;52.012;8.724;2023-05-02T09:09:35;11.57;;;5.20;;
11222;SDS011;5668;52.012;8.724;2023-05-02T09:12:02;14.67;;;5.13;;
11222;SDS011;5668;52.012;8.724;2023-05-02T09:14:30;10.00;;;4.30;;
11222;SDS011;5668;52.012;8.724;2023-05-02T09:16:58;10.90;;;4.47;;
11222;SDS011;5668;52.012;8.724;2023-05-02T09:19:26;13.63;;;4.67;;
11222;SDS011;5668;52.012;8.724;2023-05-02T09:21:58;7.87;;;3.80;;
11222;SDS011;5668;52.012;8.724;2023-05-02T09:24:26;8.17;;;4.00;;
11222;SDS011;5668;52.012;8.724;2023-05-02T09:26:57;8.90;;;3.73;;
11222;SDS011;5668;52.012;8.724;2023-05-02T09:29:27;8.27;;;3.30;;
11222;SDS011;5668;52.012;8.724;2023-05-02T09:32:01;9.50;;;3.50;;
11222;SDS011;5668;52.012;8.724;2023-05-02T09:34:28;5.47;;;2.53;;
11222;SDS011;5668;52.012;8.724;2023-05-02T09:36:55;7.73;;;2.90;;
11222;SDS011;5668;52.012;8.724;2023-05-02T09:39:23;4.00;;;2.63;;
11222;SDS011;5668;52.012;8.724;2023-05-02T09:41:53;6.50;;;2.70;;
11222;SDS011;5668;52.012;8.724;2023-05-02T09:44:21;8.70;;;3.30;;
11222;SDS011;5668;52.012;8.724;2023-05-02T09:46:50;9.27;;;2.97;;
11222;SDS011;5668;52.012;8.724;2023-05-02T09:49:24;6.33;;;3.10;;
11222;SDS011;5668;52.012;8.724;2023-05-02T09:52:09;7.60;;;2.90;;
11222;SDS011;5668;52.012;8.724;2023-05-02T09:54:36;4.90;;;2.17;;
11222;SDS011;5668;52.012;8.724;2023-05-02T09:57:04;5.43;;;2.50;;
11222;SDS011;5668;52.012;8.724;2023-05-02T09:59:31;7.27;;;2.57;;
11222;SDS011;5668;52.012;8.724;2023-05-02T10:01:59;6.50;;;2.40;;
11222;SDS011;5668;52.012;8.724;2023-05-02T10:04:30;5.17;;;2.63;;
11222;SDS011;5668;52.012;8.724;2023-05-02T10:06:59;8.33;;;2.87;;
11222;SDS011;5668;52.012;8.724;2023-05-02T10:09:27;6.17;;;2.87;;
11222;SDS011;5668;52.012;8.724;2023-05-02T10:11:56;6.10;;;2.60;;
11222;SDS011;5668;52.012;8.724;2023-05-02T10:14:29;5.80;;;2.50;;
11222;SDS011;5668;52.012;8.724;2023-05-02T10:17:01;5.03;;;2.40;;
11222;SDS011;5668;52.012;8.724;2023-05-02T10:19:37;6.20;;;2.40;;
11222;SDS011;5668;52.012;8.724;2023-05-02T10:22:07;7.13;;;2.70;;
11222;SDS011;5668;52.012;8.724;2023-05-02T10:24:35;8.63;;;2.60;;
11222;SDS011;5668;52.012;8.724;2023-05-02T10:27:05;7.47;;;2.90;;
11222;SDS011;5668;52.012;8.724;2023-05-02T10:29:33;6.57;;;2.83;;
11222;SDS011;5668;52.012;8.724;2023-05-02T10:32:01;8.50;;;3.20;;
11222;SDS011;5668;52.012;8.724;2023-05-02T10:34:30;8.77;;;3.37;;
11222;SDS011;5668;52.012;8.724;2023-05-02T10:36:59;5.57;;;2.60;;
11222;SDS011;5668;52.012;8.724;2023-05-02T10:39:26;5.93;;;3.00;;
11222;SDS011;5668;52.012;8.724;2023-05-02T10:41:55;10.83;;;4.03;;
11222;SDS011;5668;52.012;8.724;2023-05-02T10:44:33;9.23;;;3.50;;
11222;SDS011;5668;52.012;8.724;2023-05-02T10:47:16;5.93;;;2.97;;
11222;SDS011;5668;52.012;8.724;2023-05-02T10:49:48;6.00;;;3.53;;
11222;SDS011;5668;52.012;8.724;2023-05-02T10:52:27;7.83;;;3.67;;
11222;SDS011;5668;52.012;8.724;2023-05-02T10:55:12;11.50;;;3.70;;
11222;SDS011;5668;52.012;8.724;2023-05-02T11:00:45;12.93;;;3.47;;
11222;SDS011;5668;52.012;8.724;2023-05-02T11:03:13;7.60;;;3.90;;
11222;SDS011;5668;52.012;8.724;2023-05-02T11:06:03;6.97;;;3.40;;
11222;SDS011;5668;52.012;8.724;2023-05-02T11:08:33;5.47;;;3.10;;
11222;SDS011;5668;52.012;8.724;2023-05-02T11:14:00;10.67;;;3.50;;
11222;SDS011;5668;52.012;8.724;2023-05-02T11:16:33;8.33;;;3.60;;
11222;SDS011;5668;52.012;8.724;2023-05-02T11:22:52;8.53;;;3.67;;
11222;SDS011;5668;52.012;8.724;2023-05-02T11:25:36;7.33;;;3.73;;
11222;SDS011;5668;52.012;8.724;2023-05-02T11:28:05;6.73;;;3.87;;
11222;SDS011;5668;52.012;8.724;2023-05-02T11:30:53;8.37;;;3.90;;
11222;SDS011;5668;52.012;8.724;2023-05-02T11:33:20;9.53;;;4.23;;
11222;SDS011;5668;52.012;8.724;2023-05-02T11:35:47;8.40;;;3.80;;
11222;SDS011;5668;52.012;8.724;2023-05-02T11:38:15;8.30;;;3.80;;
11222;SDS011;5668;52.012;8.724;2023-05-02T11:40:52;7.93;;;3.60;;
11222;SDS011;5668;52.012;8.724;2023-05-02T11:43:24;8.07;;;3.63;;
11222;SDS011;5668;52.012;8.724;2023-05-02T11:45:53;12.80;;;3.40;;
11222;SDS011;5668;52.012;8.724;2023-05-02T11:48:22;12.80;;;3.60;;
11222;SDS011;5668;52.012;8.724;2023-05-02T11:50:52;6.37;;;3.37;;
11222;SDS011;5668;52.012;8.724;2023-05-02T11:53:21;8.03;;;3.30;;
11222;SDS011;5668;52.012;8.724;2023-05-02T11:55:51;7.03;;;3.60;;
11222;SDS011;5668;52.012;8.724;2023-05-02T11:58:20;5.47;;;3.30;;
11222;SDS011;5668;52.012;8.724;2023-05-02T12:00:48;6.03;;;3.30;;
11222;SDS011;5668;52.012;8.724;2023-05-02T12:03:20;7.20;;;3.70;;
11222;SDS011;5668;52.012;8.724;2023-05-02T12:05:48;6.30;;;3.47;;
11222;SDS011;5668;52.012;8.724;2023-05-02T12:08:17;9.60;;;4.27;;
11222;SDS011;5668;52.012;8.724;2023-05-02T12:10:45;5.63;;;3.20;;
11222;SDS011;5668;52.012;8.724;2023-05-02T12:13:13;8.20;;;3.27;;
11222;SDS011;5668;52.012;8.724;2023-05-02T12:15:41;6.83;;;3.57;;
11222;SDS011;5668;52.012;8.724;2023-05-02T12:18:09;6.47;;;3.30;;
11222;SDS011;5668;52.012;8.724;2023-05-02T12:20:37;5.77;;;3.03;;
11222;SDS011;5668;52.012;8.724;2023-05-02T12:23:05;6.40;;;2.93;;
11222;SDS011;5668;52.012;8.724;2023-05-02T12:25:36;9.90;;;3.30;;
11222;SDS011;5668;52.012;8.724;2023-05-02T12:28:04;6.63;;;2.70;;
11222;SDS011;5668;52.012;8.724;2023-05-02T12:30:34;6.20;;;3.20;;
11222;SDS011;5668;52.012;8.724;2023-05-02T12:33:03;6.60;;;3.10;;
11222;SDS011;5668;52.012;8.724;2023-05-02T12:35:32;5.90;;;3.10;;
11222;SDS011;5668;52.012;8.724;2023-05-02T12:38:07;7.23;;;3.30;;
11222;SDS011;5668;52.012;8.724;2023-05-02T12:40:36;6.83;;;3.13;;
11222;SDS011;5668;52.012;8.724;2023-05-02T12:43:04;5.17;;;2.73;;
11222;SDS011;5668;52.012;8.724;2023-05-02T12:45:36;6.83;;;3.37;;
11222;SDS011;5668;52.012;8.724;2023-05-02T12:50:46;6.33;;;3.03;;
11222;SDS011;5668;52.012;8.724;2023-05-02T12:53:14;7.90;;;3.20;;
11222;SDS011;5668;52.012;8.724;2023-05-02T12:55:41;7.23;;;3.27;;
11222;SDS011;5668;52.012;8.724;2023-05-02T12:58:09;5.00;;;3.03;;
11222;SDS011;5668;52.012;8.724;2023-05-02T13:00:39;9.20;;;3.50;;
11222;SDS011;5668;52.012;8.724;2023-05-02T13:03:07;7.37;;;3.30;;
11222;SDS011;5668;52.012;8.724;2023-05-02T13:05:35;6.13;;;3.60;;
11222;SDS011;5668;52.012;8.724;2023-05-02T13:08:03;8.40;;;4.00;;
11222;SDS011;5668;52.012;8.724;2023-05-02T13:10:31;5.67;;;3.33;;
11222;SDS011;5668;52.012;8.724;2023-05-02T13:12:58;6.43;;;3.33;;
11222;SDS011;5668;52.012;8.724;2023-05-02T13:15:25;6.80;;;3.30;;
11222;SDS011;5668;52.012;8.724;2023-05-02T13:17:54;6.57;;;3.10;;
11222;SDS011;5668;52.012;8.724;2023-05-02T13:20:21;5.07;;;3.50;;
11222;SDS011;5668;52.012;8.724;2023-05-02T13:22:48;4.43;;;2.70;;
11222;SDS011;5668;52.012;8.724;2023-05-02T13:25:16;4.50;;;2.90;;
11222;SDS011;5668;52.012;8.724;2023-05-02T13:27:43;6.10;;;2.97;;
11222;SDS011;5668;52.012;8.724;2023-05-02T13:30:10;6.37;;;2.80;;
11222;SDS011;5668;52.012;8.724;2023-05-02T13:32:38;7.90;;;3.53;;
11222;SDS011;5668;52.012;8.724;2023-05-02T13:35:07;8.20;;;3.90;;
11222;SDS011;5668;52.012;8.724;2023-05-02T13:37:37;10.03;;;4.00;;
11222;SDS011;5668;52.012;8.724;2023-05-02T13:40:06;7.40;;;3.83;;
11222;SDS011;5668;52.012;8.724;2023-05-02T13:42:38;10.60;;;3.67;;
11222;SDS011;5668;52.012;8.724;2023-05-02T13:45:06;6.20;;;3.40;;
11222;SDS011;5668;52.012;8.724;2023-05-02T13:47:33;9.80;;;3.60;;
11222;SDS011;5668;52.012;8.724;2023-05-02T13:50:01;9.03;;;3.47;;
11222;SDS011;5668;52.012;8.724;2023-05-02T13:52:32;9.33;;;3.60;;
11222;SDS011;5668;52.012;8.724;2023-05-02T13:54:59;5.80;;;3.50;;
11222;SDS011;5668;52.012;8.724;2023-05-02T13:57:27;5.93;;;3.60;;
11222;SDS011;5668;52.012;8.724;2023-05-02T13:59:54;5.33;;;3.57;;
11222;SDS011;5668;52.012;8.724;2023-05-02T14:02:21;8.63;;;3.90;;
11222;SDS011;5668;52.012;8.724;2023-05-02T14:04:48;8.73;;;3.60;;
11222;SDS011;5668;52.012;8.724;2023-05-02T14:07:15;6.23;;;3.50;;
11222;SDS011;5668;52.012;8.724;2023-05-02T14:09:44;6.93;;;3.70;;
11222;SDS011;5668;52.012;8.724;2023-05-02T14:12:11;7.43;;;3.80;;
11222;SDS011;5668;52.012;8.724;2023-05-02T14:14:38;6.13;;;3.70;;
11222;SDS011;5668;52.012;8.724;2023-05-02T14:17:06;6.83;;;3.90;;
11222;SDS011;5668;52.012;8.724;2023-05-02T14:19:33;9.23;;;4.33;;
11222;SDS011;5668;52.012;8.724;2023-05-02T14:22:00;8.00;;;3.80;;
11222;SDS011;5668;52.012;8.724;2023-05-02T14:24:27;5.37;;;3.90;;
11222;SDS011;5668;52.012;8.724;2023-05-02T14:26:56;7.63;;;3.93;;
11222;SDS011;5668;52.012;8.724;2023-05-02T14:29:23;5.83;;;3.73;;
11222;SDS011;5668;52.012;8.724;2023-05-02T14:31:51;8.23;;;3.83;;
11222;SDS011;5668;52.012;8.724;2023-05-02T14:34:18;9.70;;;4.07;;
11222;SDS011;5668;52.012;8.724;2023-05-02T14:36:46;7.60;;;3.87;;
11222;SDS011;5668;52.012;8.724;2023-05-02T14:39:13;10.10;;;4.13;;
11222;SDS011;5668;52.012;8.724;2023-05-02T14:41:40;5.73;;;3.60;;
11222;SDS011;5668;52.012;8.724;2023-05-02T14:44:09;8.70;;;3.93;;
11222;SDS011;5668;52.012;8.724;2023-05-02T14:46:36;6.13;;;3.60;;
11222;SDS011;5668;52.012;8.724;2023-05-02T14:49:03;4.90;;;3.73;;
11222;SDS011;5668;52.012;8.724;2023-05-02T14:51:31;5.63;;;3.60;;
11222;SDS011;5668;52.012;8.724;2023-05-02T14:53:58;6.07;;;3.47;;
11222;SDS011;5668;52.012;8.724;2023-05-02T14:56:25;6.70;;;3.50;;
11222;SDS011;5668;52.012;8.724;2023-05-02T14:58:52;6.27;;;3.60;;
11222;SDS011;5668;52.012;8.724;2023-05-02T15:01:22;6.70;;;3.53;;
11222;SDS011;5668;52.012;8.724;2023-05-02T15:03:49;7.63;;;3.43;;
11222;SDS011;5668;52.012;8.724;2023-05-02T15:06:16;8.53;;;2.90;;
11222;SDS011;5668;52.012;8.724;2023-05-02T15:08:44;6.77;;;3.60;;
11222;SDS011;5668;52.012;8.724;2023-05-02T15:11:12;4.23;;;3.27;;
11222;SDS011;5668;52.012;8.724;2023-05-02T15:13:40;6.60;;;3.40;;
11222;SDS011;5668;52.012;8.724;2023-05-02T15:16:08;5.13;;;3.50;;